sensor_id;sensor_type;location;lat;lon;timestamp;P1;durP1;ratioP1;P2;durP2;ratioP2
20519;SDS011;53432;51.952;14.740;2022-09-30T00:00:07;14.17;;;7.37;;
20519;SDS011;53432;51.952;14.740;2022-09-30T00:02:36;11.40;;;6.97;;
20519;SDS011;53432;51.952;14.740;2022-09-30T00:05:05;13.63;;;7.40;;
20519;SDS011;53432;51.952;14.740;2022-09-30T00:07:32;14.67;;;7.73;;
20519;SDS011;53432;51.952;14.740;2022-09-30T00:10:00;15.23;;;8.40;;
20519;SDS011;53432;51.952;14.740;2022-09-30T00:12:27;18.77;;;10.20;;
20519;SDS011;53432;51.952;14.740;2022-09-30T00:14:54;11.63;;;7.23;;
20519;SDS011;53432;51.952;14.740;2022-09-30T00:17:21;12.47;;;7.57;;
20519;SDS011;53432;51.952;14.740;2022-09-30T00:19:49;8.93;;;6.03;;
20519;SDS011;53432;51.952;14.740;2022-09-30T00:22:17;9.47;;;6.43;;
20519;SDS011;53432;51.952;14.740;2022-09-30T00:24:45;12.23;;;6.63;;
20519;SDS011;53432;51.952;14.740;2022-09-30T00:27:12;9.93;;;5.80;;
20519;SDS011;53432;51.952;14.740;2022-09-30T00:29:42;9.20;;;5.80;;
20519;SDS011;53432;51.952;14.740;2022-09-30T00:32:10;11.33;;;6.80;;
20519;SDS011;53432;51.952;14.740;2022-09-30T00:34:37;11.43;;;6.80;;
20519;SDS011;53432;51.952;14.740;2022-09-30T00:37:04;15.43;;;7.03;;
20519;SDS011;53432;51.952;14.740;2022-09-30T00:39:34;12.33;;;6.53;;
20519;SDS011;53432;51.952;14.740;2022-09-30T00:42:03;11.17;;;7.37;;
20519;SDS011;53432;51.952;14.740;2022-09-30T00:44:46;11.03;;;7.13;;
20519;SDS011;53432;51.952;14.740;2022-09-30T00:50:13;16.37;;;9.33;;
20519;SDS011;53432;51.952;14.740;2022-09-30T00:52:49;17.57;;;10.27;;
20519;SDS011;53432;51.952;14.740;2022-09-30T00:55:25;15.33;;;8.67;;
20519;SDS011;53432;51.952;14.740;2022-09-30T00:57:56;15.73;;;9.13;;
20519;SDS011;53432;51.952;14.740;2022-09-30T01:00:27;14.97;;;9.50;;
20519;SDS011;53432;51.952;14.740;2022-09-30T01:02:54;16.20;;;8.57;;
20519;SDS011;53432;51.952;14.740;2022-09-30T01:05:23;16.23;;;9.17;;
20519;SDS011;53432;51.952;14.740;2022-09-30T01:07:52;15.67;;;8.20;;
20519;SDS011;53432;51.952;14.740;2022-09-30T01:10:24;14.37;;;8.70;;
20519;SDS011;53432;51.952;14.740;2022-09-30T01:12:52;13.33;;;7.47;;
20519;SDS011;53432;51.952;14.740;2022-09-30T01:15:20;12.80;;;6.77;;
20519;SDS011;53432;51.952;14.740;2022-09-30T01:17:53;14.10;;;7.07;;
20519;SDS011;53432;51.952;14.740;2022-09-30T01:20:34;9.37;;;6.10;;
20519;SDS011;53432;51.952;14.740;2022-09-30T01:23:24;10.00;;;6.50;;
20519;SDS011;53432;51.952;14.740;2022-09-30T01:26:13;12.53;;;7.77;;
20519;SDS011;53432;51.952;14.740;2022-09-30T01:29:19;25.10;;;13.20;;
20519;SDS011;53432;51.952;14.740;2022-09-30T01:32:10;26.63;;;14.90;;
20519;SDS011;53432;51.952;14.740;2022-09-30T01:34:45;18.13;;;11.80;;
20519;SDS011;53432;51.952;14.740;2022-09-30T01:37:19;14.67;;;9.00;;
20519;SDS011;53432;51.952;14.740;2022-09-30T01:39:50;14.70;;;8.77;;
20519;SDS011;53432;51.952;14.740;2022-09-30T01:42:27;16.17;;;9.53;;
20519;SDS011;53432;51.952;14.740;2022-09-30T01:45:04;19.83;;;9.93;;
20519;SDS011;53432;51.952;14.740;2022-09-30T01:47:39;18.07;;;9.60;;
20519;SDS011;53432;51.952;14.740;2022-09-30T01:50:12;15.23;;;9.57;;
20519;SDS011;53432;51.952;14.740;2022-09-30T01:52:45;20.10;;;10.23;;
20519;SDS011;53432;51.952;14.740;2022-09-30T01:55:20;16.10;;;10.03;;
20519;SDS011;53432;51.952;14.740;2022-09-30T01:57:55;18.77;;;10.30;;
20519;SDS011;53432;51.952;14.740;2022-09-30T02:00:27;14.17;;;9.13;;
20519;SDS011;53432;51.952;14.740;2022-09-30T02:02:59;15.73;;;7.77;;
20519;SDS011;53432;51.952;14.740;2022-09-30T02:05:32;12.33;;;7.43;;
20519;SDS011;53432;51.952;14.740;2022-09-30T02:08:06;12.67;;;7.67;;
20519;SDS011;53432;51.952;14.740;2022-09-30T02:10:38;13.63;;;8.33;;
20519;SDS011;53432;51.952;14.740;2022-09-30T02:13:12;14.13;;;8.40;;
20519;SDS011;53432;51.952;14.740;2022-09-30T02:15:45;13.90;;;8.00;;
20519;SDS011;53432;51.952;14.740;2022-09-30T02:18:22;13.23;;;8.60;;
20519;SDS011;53432;51.952;14.740;2022-09-30T02:20:56;13.53;;;8.63;;
20519;SDS011;53432;51.952;14.740;2022-09-30T02:23:27;16.97;;;9.83;;
20519;SDS011;53432;51.952;14.740;2022-09-30T02:25:58;19.70;;;11.43;;
20519;SDS011;53432;51.952;14.740;2022-09-30T02:28:31;32.27;;;17.17;;
20519;SDS011;53432;51.952;14.740;2022-09-30T02:31:02;37.03;;;18.47;;
20519;SDS011;53432;51.952;14.740;2022-09-30T02:33:33;34.60;;;18.70;;
20519;SDS011;53432;51.952;14.740;2022-09-30T02:36:04;35.43;;;18.47;;
20519;SDS011;53432;51.952;14.740;2022-09-30T02:38:37;31.10;;;17.87;;
20519;SDS011;53432;51.952;14.740;2022-09-30T02:41:08;33.23;;;18.77;;
20519;SDS011;53432;51.952;14.740;2022-09-30T02:43:37;40.13;;;19.67;;
20519;SDS011;53432;51.952;14.740;2022-09-30T02:46:07;32.37;;;18.60;;
20519;SDS011;53432;51.952;14.740;2022-09-30T02:48:45;38.33;;;19.47;;
20519;SDS011;53432;51.952;14.740;2022-09-30T02:51:20;33.20;;;16.50;;
20519;SDS011;53432;51.952;14.740;2022-09-30T02:53:58;33.27;;;18.03;;
20519;SDS011;53432;51.952;14.740;2022-09-30T02:56:32;28.77;;;17.80;;
20519;SDS011;53432;51.952;14.740;2022-09-30T02:59:14;32.47;;;16.90;;
20519;SDS011;53432;51.952;14.740;2022-09-30T03:01:41;31.80;;;17.30;;
20519;SDS011;53432;51.952;14.740;2022-09-30T03:04:11;26.23;;;15.40;;
20519;SDS011;53432;51.952;14.740;2022-09-30T03:06:41;29.97;;;15.73;;
20519;SDS011;53432;51.952;14.740;2022-09-30T03:09:09;27.67;;;15.03;;
20519;SDS011;53432;51.952;14.740;2022-09-30T03:11:36;22.00;;;14.10;;
20519;SDS011;53432;51.952;14.740;2022-09-30T03:14:14;27.93;;;13.77;;
20519;SDS011;53432;51.952;14.740;2022-09-30T03:20:07;21.10;;;11.53;;
20519;SDS011;53432;51.952;14.740;2022-09-30T03:22:46;20.10;;;12.27;;
20519;SDS011;53432;51.952;14.740;2022-09-30T03:25:28;25.73;;;13.40;;
20519;SDS011;53432;51.952;14.740;2022-09-30T03:28:08;22.60;;;12.67;;
20519;SDS011;53432;51.952;14.740;2022-09-30T03:30:45;19.83;;;12.53;;
20519;SDS011;53432;51.952;14.740;2022-09-30T03:33:20;23.23;;;12.20;;
20519;SDS011;53432;51.952;14.740;2022-09-30T03:35:55;20.37;;;12.80;;
20519;SDS011;53432;51.952;14.740;2022-09-30T03:38:31;20.23;;;11.17;;
20519;SDS011;53432;51.952;14.740;2022-09-30T03:41:07;16.73;;;10.33;;
20519;SDS011;53432;51.952;14.740;2022-09-30T03:43:42;18.23;;;10.13;;
20519;SDS011;53432;51.952;14.740;2022-09-30T03:46:15;16.83;;;10.43;;
20519;SDS011;53432;51.952;14.740;2022-09-30T03:48:48;18.23;;;11.47;;
20519;SDS011;53432;51.952;14.740;2022-09-30T03:51:19;20.53;;;10.63;;
20519;SDS011;53432;51.952;14.740;2022-09-30T03:53:49;17.93;;;10.23;;
20519;SDS011;53432;51.952;14.740;2022-09-30T03:56:22;18.07;;;9.27;;
20519;SDS011;53432;51.952;14.740;2022-09-30T03:58:50;21.77;;;9.53;;
20519;SDS011;53432;51.952;14.740;2022-09-30T04:01:18;17.67;;;9.23;;
20519;SDS011;53432;51.952;14.740;2022-09-30T04:03:46;16.07;;;9.37;;
20519;SDS011;53432;51.952;14.740;2022-09-30T04:06:17;17.83;;;10.10;;
20519;SDS011;53432;51.952;14.740;2022-09-30T04:08:47;15.53;;;9.73;;
20519;SDS011;53432;51.952;14.740;2022-09-30T04:11:14;15.43;;;9.50;;
20519;SDS011;53432;51.952;14.740;2022-09-30T04:13:42;14.27;;;8.43;;
20519;SDS011;53432;51.952;14.740;2022-09-30T04:16:09;15.63;;;9.00;;
20519;SDS011;53432;51.952;14.740;2022-09-30T04:18:37;13.23;;;8.53;;
20519;SDS011;53432;51.952;14.740;2022-09-30T04:21:05;15.47;;;8.10;;
20519;SDS011;53432;51.952;14.740;2022-09-30T04:23:35;18.63;;;7.93;;
20519;SDS011;53432;51.952;14.740;2022-09-30T04:26:03;12.37;;;7.50;;
20519;SDS011;53432;51.952;14.740;2022-09-30T04:28:31;19.13;;;8.27;;
20519;SDS011;53432;51.952;14.740;2022-09-30T04:30:59;15.07;;;7.93;;
20519;SDS011;53432;51.952;14.740;2022-09-30T04:33:26;13.33;;;7.00;;
20519;SDS011;53432;51.952;14.740;2022-09-30T04:35:54;14.00;;;8.10;;
20519;SDS011;53432;51.952;14.740;2022-09-30T04:38:21;21.23;;;11.03;;
20519;SDS011;53432;51.952;14.740;2022-09-30T04:40:50;22.00;;;11.57;;
20519;SDS011;53432;51.952;14.740;2022-09-30T04:43:19;20.57;;;11.70;;
20519;SDS011;53432;51.952;14.740;2022-09-30T04:45:47;17.37;;;10.57;;
20519;SDS011;53432;51.952;14.740;2022-09-30T04:48:15;18.73;;;10.20;;
20519;SDS011;53432;51.952;14.740;2022-09-30T04:50:42;18.97;;;11.20;;
20519;SDS011;53432;51.952;14.740;2022-09-30T04:53:10;23.27;;;12.47;;
20519;SDS011;53432;51.952;14.740;2022-09-30T04:55:39;30.47;;;12.83;;
20519;SDS011;53432;51.952;14.740;2022-09-30T04:58:08;21.37;;;12.40;;
20519;SDS011;53432;51.952;14.740;2022-09-30T05:00:35;23.03;;;12.17;;
20519;SDS011;53432;51.952;14.740;2022-09-30T05:03:03;22.10;;;12.37;;
20519;SDS011;53432;51.952;14.740;2022-09-30T05:05:31;16.67;;;10.60;;
20519;SDS011;53432;51.952;14.740;2022-09-30T05:07:59;19.57;;;11.60;;
20519;SDS011;53432;51.952;14.740;2022-09-30T05:10:27;20.07;;;10.90;;
20519;SDS011;53432;51.952;14.740;2022-09-30T05:12:55;18.03;;;10.73;;
20519;SDS011;53432;51.952;14.740;2022-09-30T05:15:24;15.93;;;10.17;;
20519;SDS011;53432;51.952;14.740;2022-09-30T05:17:52;12.80;;;8.80;;
20519;SDS011;53432;51.952;14.740;2022-09-30T05:20:19;17.60;;;9.80;;
20519;SDS011;53432;51.952;14.740;2022-09-30T05:22:47;18.87;;;10.00;;
20519;SDS011;53432;51.952;14.740;2022-09-30T05:25:19;18.33;;;10.53;;
20519;SDS011;53432;51.952;14.740;2022-09-30T05:27:48;32.27;;;17.60;;
20519;SDS011;53432;51.952;14.740;2022-09-30T05:30:15;31.47;;;17.10;;
20519;SDS011;53432;51.952;14.740;2022-09-30T05:32:44;31.57;;;17.57;;
20519;SDS011;53432;51.952;14.740;2022-09-30T05:35:11;26.60;;;13.83;;
20519;SDS011;53432;51.952;14.740;2022-09-30T05:37:39;24.57;;;15.63;;
20519;SDS011;53432;51.952;14.740;2022-09-30T05:40:07;27.53;;;14.13;;
20519;SDS011;53432;51.952;14.740;2022-09-30T05:42:35;22.93;;;12.27;;
20519;SDS011;53432;51.952;14.740;2022-09-30T05:45:02;25.03;;;13.53;;
20519;SDS011;53432;51.952;14.740;2022-09-30T05:47:31;26.67;;;12.93;;
20519;SDS011;53432;51.952;14.740;2022-09-30T05:49:59;31.00;;;14.30;;
20519;SDS011;53432;51.952;14.740;2022-09-30T05:52:27;28.93;;;14.00;;
20519;SDS011;53432;51.952;14.740;2022-09-30T05:54:55;22.37;;;13.87;;
20519;SDS011;53432;51.952;14.740;2022-09-30T05:57:25;28.50;;;14.00;;
20519;SDS011;53432;51.952;14.740;2022-09-30T05:59:54;26.73;;;12.87;;
20519;SDS011;53432;51.952;14.740;2022-09-30T06:02:22;24.13;;;12.57;;
20519;SDS011;53432;51.952;14.740;2022-09-30T06:04:49;28.10;;;12.17;;
20519;SDS011;53432;51.952;14.740;2022-09-30T06:07:18;26.60;;;13.57;;
20519;SDS011;53432;51.952;14.740;2022-09-30T06:09:45;29.67;;;15.53;;
20519;SDS011;53432;51.952;14.740;2022-09-30T06:12:15;33.93;;;17.60;;
20519;SDS011;53432;51.952;14.740;2022-09-30T06:14:42;29.00;;;16.33;;
20519;SDS011;53432;51.952;14.740;2022-09-30T06:17:10;39.13;;;15.93;;
20519;SDS011;53432;51.952;14.740;2022-09-30T06:19:37;29.37;;;13.83;;
20519;SDS011;53432;51.952;14.740;2022-09-30T06:22:05;25.37;;;13.13;;
20519;SDS011;53432;51.952;14.740;2022-09-30T06:24:33;36.77;;;16.53;;
20519;SDS011;53432;51.952;14.740;2022-09-30T06:27:01;26.57;;;14.50;;
20519;SDS011;53432;51.952;14.740;2022-09-30T06:29:29;31.03;;;15.33;;
20519;SDS011;53432;51.952;14.740;2022-09-30T06:31:56;26.43;;;15.17;;
20519;SDS011;53432;51.952;14.740;2022-09-30T06:34:23;33.97;;;17.40;;
20519;SDS011;53432;51.952;14.740;2022-09-30T06:36:51;25.67;;;16.17;;
20519;SDS011;53432;51.952;14.740;2022-09-30T06:39:18;31.40;;;16.87;;
20519;SDS011;53432;51.952;14.740;2022-09-30T06:41:49;35.40;;;17.23;;
20519;SDS011;53432;51.952;14.740;2022-09-30T06:44:16;27.30;;;14.00;;
20519;SDS011;53432;51.952;14.740;2022-09-30T06:46:43;26.80;;;16.10;;
20519;SDS011;53432;51.952;14.740;2022-09-30T06:49:10;32.27;;;18.33;;
20519;SDS011;53432;51.952;14.740;2022-09-30T06:51:38;37.30;;;20.77;;
20519;SDS011;53432;51.952;14.740;2022-09-30T06:54:05;48.83;;;23.53;;
20519;SDS011;53432;51.952;14.740;2022-09-30T06:56:33;45.20;;;22.17;;
20519;SDS011;53432;51.952;14.740;2022-09-30T06:59:02;38.07;;;18.17;;
20519;SDS011;53432;51.952;14.740;2022-09-30T07:01:30;30.50;;;15.47;;
20519;SDS011;53432;51.952;14.740;2022-09-30T07:03:57;21.97;;;13.37;;
20519;SDS011;53432;51.952;14.740;2022-09-30T07:06:25;24.10;;;14.47;;
20519;SDS011;53432;51.952;14.740;2022-09-30T07:08:52;32.53;;;17.20;;
20519;SDS011;53432;51.952;14.740;2022-09-30T07:11:21;36.07;;;16.43;;
20519;SDS011;53432;51.952;14.740;2022-09-30T07:13:49;51.20;;;20.27;;
20519;SDS011;53432;51.952;14.740;2022-09-30T07:16:18;30.13;;;16.80;;
20519;SDS011;53432;51.952;14.740;2022-09-30T07:18:46;29.20;;;15.57;;
20519;SDS011;53432;51.952;14.740;2022-09-30T07:21:14;35.27;;;17.60;;
20519;SDS011;53432;51.952;14.740;2022-09-30T07:23:42;30.80;;;15.60;;
20519;SDS011;53432;51.952;14.740;2022-09-30T07:26:12;27.47;;;13.97;;
20519;SDS011;53432;51.952;14.740;2022-09-30T07:28:40;28.03;;;13.47;;
20519;SDS011;53432;51.952;14.740;2022-09-30T07:31:09;22.47;;;13.10;;
20519;SDS011;53432;51.952;14.740;2022-09-30T07:33:39;22.37;;;11.93;;
20519;SDS011;53432;51.952;14.740;2022-09-30T07:36:06;24.07;;;13.07;;
20519;SDS011;53432;51.952;14.740;2022-09-30T07:38:35;20.57;;;11.90;;
20519;SDS011;53432;51.952;14.740;2022-09-30T07:41:06;20.37;;;12.87;;
20519;SDS011;53432;51.952;14.740;2022-09-30T07:43:35;19.53;;;11.57;;
20519;SDS011;53432;51.952;14.740;2022-09-30T07:46:05;24.27;;;12.67;;
20519;SDS011;53432;51.952;14.740;2022-09-30T07:48:35;23.20;;;12.87;;
20519;SDS011;53432;51.952;14.740;2022-09-30T07:51:14;19.20;;;12.30;;
20519;SDS011;53432;51.952;14.740;2022-09-30T07:53:43;19.50;;;11.90;;
20519;SDS011;53432;51.952;14.740;2022-09-30T07:56:12;28.53;;;16.20;;
20519;SDS011;53432;51.952;14.740;2022-09-30T07:58:40;30.13;;;16.98;;
20519;SDS011;53432;51.952;14.740;2022-09-30T08:01:08;23.43;;;13.50;;
20519;SDS011;53432;51.952;14.740;2022-09-30T08:03:36;26.45;;;13.90;;
20519;SDS011;53432;51.952;14.740;2022-09-30T08:06:06;22.00;;;13.00;;
20519;SDS011;53432;51.952;14.740;2022-09-30T08:08:36;25.10;;;13.60;;
20519;SDS011;53432;51.952;14.740;2022-09-30T08:11:04;24.65;;;12.27;;
20519;SDS011;53432;51.952;14.740;2022-09-30T08:13:32;22.27;;;13.40;;
20519;SDS011;53432;51.952;14.740;2022-09-30T08:16:00;26.02;;;11.93;;
20519;SDS011;53432;51.952;14.740;2022-09-30T08:18:27;25.23;;;14.65;;
20519;SDS011;53432;51.952;14.740;2022-09-30T08:20:55;25.23;;;13.48;;
20519;SDS011;53432;51.952;14.740;2022-09-30T08:23:23;28.45;;;15.00;;
20519;SDS011;53432;51.952;14.740;2022-09-30T08:25:51;31.52;;;15.43;;
20519;SDS011;53432;51.952;14.740;2022-09-30T08:28:25;27.60;;;15.00;;
20519;SDS011;53432;51.952;14.740;2022-09-30T08:31:01;25.92;;;14.02;;
20519;SDS011;53432;51.952;14.740;2022-09-30T08:33:29;24.30;;;11.60;;
20519;SDS011;53432;51.952;14.740;2022-09-30T08:36:00;27.23;;;13.98;;
20519;SDS011;53432;51.952;14.740;2022-09-30T08:38:28;56.58;;;32.20;;
20519;SDS011;53432;51.952;14.740;2022-09-30T08:40:59;52.78;;;26.58;;
20519;SDS011;53432;51.952;14.740;2022-09-30T08:43:39;29.50;;;14.65;;
20519;SDS011;53432;51.952;14.740;2022-09-30T08:46:13;18.48;;;10.40;;
20519;SDS011;53432;51.952;14.740;2022-09-30T08:48:47;20.50;;;10.93;;
20519;SDS011;53432;51.952;14.740;2022-09-30T08:51:25;19.73;;;10.65;;
20519;SDS011;53432;51.952;14.740;2022-09-30T08:53:57;18.35;;;11.38;;
20519;SDS011;53432;51.952;14.740;2022-09-30T08:56:30;23.05;;;12.32;;
20519;SDS011;53432;51.952;14.740;2022-09-30T08:59:00;16.13;;;9.18;;
20519;SDS011;53432;51.952;14.740;2022-09-30T09:01:32;18.67;;;9.85;;
20519;SDS011;53432;51.952;14.740;2022-09-30T09:04:01;17.45;;;11.15;;
20519;SDS011;53432;51.952;14.740;2022-09-30T09:06:32;13.80;;;8.02;;
20519;SDS011;53432;51.952;14.740;2022-09-30T09:12:04;16.95;;;8.70;;
20519;SDS011;53432;51.952;14.740;2022-09-30T09:14:43;13.00;;;7.88;;
20519;SDS011;53432;51.952;14.740;2022-09-30T09:17:23;15.38;;;8.98;;
20519;SDS011;53432;51.952;14.740;2022-09-30T09:20:02;10.65;;;7.10;;
20519;SDS011;53432;51.952;14.740;2022-09-30T09:22:34;8.70;;;6.40;;
20519;SDS011;53432;51.952;14.740;2022-09-30T09:25:03;6.65;;;5.38;;
20519;SDS011;53432;51.952;14.740;2022-09-30T09:27:36;8.10;;;5.53;;
20519;SDS011;53432;51.952;14.740;2022-09-30T09:30:16;8.85;;;6.15;;
20519;SDS011;53432;51.952;14.740;2022-09-30T09:32:48;7.95;;;5.28;;
20519;SDS011;53432;51.952;14.740;2022-09-30T09:35:22;7.10;;;5.90;;
20519;SDS011;53432;51.952;14.740;2022-09-30T09:37:55;8.23;;;5.05;;
20519;SDS011;53432;51.952;14.740;2022-09-30T09:40:47;7.10;;;4.93;;
20519;SDS011;53432;51.952;14.740;2022-09-30T09:43:26;9.27;;;4.93;;
20519;SDS011;53432;51.952;14.740;2022-09-30T09:46:02;10.35;;;5.78;;
20519;SDS011;53432;51.952;14.740;2022-09-30T09:48:34;6.78;;;4.18;;
20519;SDS011;53432;51.952;14.740;2022-09-30T09:51:02;6.88;;;4.03;;
20519;SDS011;53432;51.952;14.740;2022-09-30T09:53:47;7.10;;;4.15;;
20519;SDS011;53432;51.952;14.740;2022-09-30T09:56:17;7.32;;;4.32;;
20519;SDS011;53432;51.952;14.740;2022-09-30T09:59:07;7.22;;;4.65;;
20519;SDS011;53432;51.952;14.740;2022-09-30T10:01:39;8.02;;;5.00;;
20519;SDS011;53432;51.952;14.740;2022-09-30T10:04:12;6.30;;;3.78;;
20519;SDS011;53432;51.952;14.740;2022-09-30T10:06:46;5.45;;;3.67;;
20519;SDS011;53432;51.952;14.740;2022-09-30T10:09:26;5.53;;;3.97;;
20519;SDS011;53432;51.952;14.740;2022-09-30T10:14:54;5.88;;;4.22;;
20519;SDS011;53432;51.952;14.740;2022-09-30T10:17:25;5.35;;;3.70;;
20519;SDS011;53432;51.952;14.740;2022-09-30T10:19:57;5.13;;;3.42;;
20519;SDS011;53432;51.952;14.740;2022-09-30T10:22:29;6.05;;;4.03;;
20519;SDS011;53432;51.952;14.740;2022-09-30T10:25:15;6.40;;;4.32;;
20519;SDS011;53432;51.952;14.740;2022-09-30T10:27:50;5.97;;;4.10;;
20519;SDS011;53432;51.952;14.740;2022-09-30T10:33:16;5.20;;;3.80;;
20519;SDS011;53432;51.952;14.740;2022-09-30T10:35:48;5.82;;;4.20;;
20519;SDS011;53432;51.952;14.740;2022-09-30T10:38:19;5.95;;;3.75;;
20519;SDS011;53432;51.952;14.740;2022-09-30T10:40:47;5.22;;;4.00;;
20519;SDS011;53432;51.952;14.740;2022-09-30T10:43:26;6.60;;;3.70;;
20519;SDS011;53432;51.952;14.740;2022-09-30T10:45:58;5.35;;;3.70;;
20519;SDS011;53432;51.952;14.740;2022-09-30T10:48:28;5.10;;;3.83;;
20519;SDS011;53432;51.952;14.740;2022-09-30T10:50:59;6.15;;;3.53;;
20519;SDS011;53432;51.952;14.740;2022-09-30T10:53:27;8.35;;;4.07;;
20519;SDS011;53432;51.952;14.740;2022-09-30T10:55:58;4.85;;;3.67;;
20519;SDS011;53432;51.952;14.740;2022-09-30T10:58:41;4.28;;;3.05;;
20519;SDS011;53432;51.952;14.740;2022-09-30T11:01:15;6.65;;;3.33;;
20519;SDS011;53432;51.952;14.740;2022-09-30T11:03:53;3.42;;;2.83;;
20519;SDS011;53432;51.952;14.740;2022-09-30T11:06:30;4.25;;;2.97;;
20519;SDS011;53432;51.952;14.740;2022-09-30T11:09:00;4.63;;;2.55;;
20519;SDS011;53432;51.952;14.740;2022-09-30T11:11:36;4.57;;;2.80;;
20519;SDS011;53432;51.952;14.740;2022-09-30T11:14:12;5.80;;;3.30;;
20519;SDS011;53432;51.952;14.740;2022-09-30T11:16:56;3.65;;;2.70;;
20519;SDS011;53432;51.952;14.740;2022-09-30T11:19:43;4.38;;;3.05;;
20519;SDS011;53432;51.952;14.740;2022-09-30T11:22:20;5.22;;;3.20;;
20519;SDS011;53432;51.952;14.740;2022-09-30T11:24:55;5.32;;;2.85;;
20519;SDS011;53432;51.952;14.740;2022-09-30T11:27:25;5.47;;;3.33;;
20519;SDS011;53432;51.952;14.740;2022-09-30T11:30:02;4.03;;;3.28;;
20519;SDS011;53432;51.952;14.740;2022-09-30T11:32:39;3.67;;;2.92;;
20519;SDS011;53432;51.952;14.740;2022-09-30T11:35:36;4.15;;;3.15;;
20519;SDS011;53432;51.952;14.740;2022-09-30T11:38:16;3.92;;;2.95;;
20519;SDS011;53432;51.952;14.740;2022-09-30T11:41:07;9.90;;;3.33;;
20519;SDS011;53432;51.952;14.740;2022-09-30T11:43:42;3.03;;;2.53;;
20519;SDS011;53432;51.952;14.740;2022-09-30T11:46:30;3.80;;;3.17;;
20519;SDS011;53432;51.952;14.740;2022-09-30T11:49:17;4.15;;;2.70;;
20519;SDS011;53432;51.952;14.740;2022-09-30T11:52:07;5.80;;;2.33;;
20519;SDS011;53432;51.952;14.740;2022-09-30T11:54:45;3.80;;;2.05;;
20519;SDS011;53432;51.952;14.740;2022-09-30T11:57:34;3.70;;;2.28;;
20519;SDS011;53432;51.952;14.740;2022-09-30T12:00:11;3.58;;;2.75;;
20519;SDS011;53432;51.952;14.740;2022-09-30T12:02:41;5.97;;;2.30;;
20519;SDS011;53432;51.952;14.740;2022-09-30T12:05:15;3.05;;;2.20;;
20519;SDS011;53432;51.952;14.740;2022-09-30T12:07:46;3.00;;;2.50;;
20519;SDS011;53432;51.952;14.740;2022-09-30T12:10:18;4.97;;;3.35;;
20519;SDS011;53432;51.952;14.740;2022-09-30T12:12:50;3.83;;;2.42;;
20519;SDS011;53432;51.952;14.740;2022-09-30T12:15:22;2.90;;;2.53;;
20519;SDS011;53432;51.952;14.740;2022-09-30T12:17:53;4.07;;;2.72;;
20519;SDS011;53432;51.952;14.740;2022-09-30T12:20:29;3.72;;;2.47;;
20519;SDS011;53432;51.952;14.740;2022-09-30T12:23:00;4.15;;;3.08;;
20519;SDS011;53432;51.952;14.740;2022-09-30T12:25:38;4.10;;;2.42;;
20519;SDS011;53432;51.952;14.740;2022-09-30T12:28:12;4.70;;;2.63;;
20519;SDS011;53432;51.952;14.740;2022-09-30T12:31:07;4.70;;;2.97;;
20519;SDS011;53432;51.952;14.740;2022-09-30T12:33:55;2.72;;;2.13;;
20519;SDS011;53432;51.952;14.740;2022-09-30T12:36:40;3.10;;;2.42;;
20519;SDS011;53432;51.952;14.740;2022-09-30T12:39:35;3.13;;;2.50;;
20519;SDS011;53432;51.952;14.740;2022-09-30T12:45:24;2.97;;;2.22;;
20519;SDS011;53432;51.952;14.740;2022-09-30T12:48:14;3.80;;;2.38;;
20519;SDS011;53432;51.952;14.740;2022-09-30T12:50:46;2.78;;;2.50;;
20519;SDS011;53432;51.952;14.740;2022-09-30T12:53:19;2.67;;;2.40;;
20519;SDS011;53432;51.952;14.740;2022-09-30T12:55:51;5.57;;;3.47;;
20519;SDS011;53432;51.952;14.740;2022-09-30T12:58:20;6.72;;;2.80;;
20519;SDS011;53432;51.952;14.740;2022-09-30T13:01:00;8.98;;;3.95;;
20519;SDS011;53432;51.952;14.740;2022-09-30T13:03:50;2.80;;;2.30;;
20519;SDS011;53432;51.952;14.740;2022-09-30T13:06:18;3.97;;;2.30;;
20519;SDS011;53432;51.952;14.740;2022-09-30T13:11:44;3.83;;;2.40;;
20519;SDS011;53432;51.952;14.740;2022-09-30T13:14:22;7.63;;;2.80;;
20519;SDS011;53432;51.952;14.740;2022-09-30T13:17:00;4.78;;;2.72;;
20519;SDS011;53432;51.952;14.740;2022-09-30T13:19:46;3.03;;;1.95;;
20519;SDS011;53432;51.952;14.740;2022-09-30T13:25:24;3.63;;;3.03;;
20519;SDS011;53432;51.952;14.740;2022-09-30T13:27:52;3.90;;;2.33;;
20519;SDS011;53432;51.952;14.740;2022-09-30T13:33:40;4.18;;;2.78;;
20519;SDS011;53432;51.952;14.740;2022-09-30T13:36:16;3.13;;;2.25;;
20519;SDS011;53432;51.952;14.740;2022-09-30T13:39:04;2.83;;;2.20;;
20519;SDS011;53432;51.952;14.740;2022-09-30T13:41:43;2.92;;;2.13;;
20519;SDS011;53432;51.952;14.740;2022-09-30T13:44:18;2.60;;;2.10;;
20519;SDS011;53432;51.952;14.740;2022-09-30T13:46:50;4.32;;;2.63;;
20519;SDS011;53432;51.952;14.740;2022-09-30T13:49:22;3.97;;;2.08;;
20519;SDS011;53432;51.952;14.740;2022-09-30T13:51:57;2.25;;;1.90;;
20519;SDS011;53432;51.952;14.740;2022-09-30T13:54:26;3.95;;;2.13;;
20519;SDS011;53432;51.952;14.740;2022-09-30T13:56:59;6.15;;;2.15;;
20519;SDS011;53432;51.952;14.740;2022-09-30T13:59:41;4.65;;;2.97;;
20519;SDS011;53432;51.952;14.740;2022-09-30T14:02:22;4.22;;;2.05;;
20519;SDS011;53432;51.952;14.740;2022-09-30T14:05:20;3.47;;;2.28;;
20519;SDS011;53432;51.952;14.740;2022-09-30T14:08:03;1.77;;;1.63;;
20519;SDS011;53432;51.952;14.740;2022-09-30T14:10:57;3.08;;;2.00;;
20519;SDS011;53432;51.952;14.740;2022-09-30T14:13:37;2.78;;;2.15;;
20519;SDS011;53432;51.952;14.740;2022-09-30T14:16:16;2.50;;;1.98;;
20519;SDS011;53432;51.952;14.740;2022-09-30T14:19:09;5.50;;;2.35;;
20519;SDS011;53432;51.952;14.740;2022-09-30T14:21:48;4.88;;;3.20;;
20519;SDS011;53432;51.952;14.740;2022-09-30T14:24:21;4.18;;;2.15;;
20519;SDS011;53432;51.952;14.740;2022-09-30T14:26:56;3.28;;;2.08;;
20519;SDS011;53432;51.952;14.740;2022-09-30T14:29:37;2.28;;;1.75;;
20519;SDS011;53432;51.952;14.740;2022-09-30T14:32:11;3.47;;;2.08;;
20519;SDS011;53432;51.952;14.740;2022-09-30T14:34:40;2.33;;;1.80;;
20519;SDS011;53432;51.952;14.740;2022-09-30T14:37:11;2.72;;;1.77;;
20519;SDS011;53432;51.952;14.740;2022-09-30T14:39:45;3.47;;;2.05;;
20519;SDS011;53432;51.952;14.740;2022-09-30T14:42:15;8.48;;;3.50;;
20519;SDS011;53432;51.952;14.740;2022-09-30T14:44:52;7.88;;;3.95;;
20519;SDS011;53432;51.952;14.740;2022-09-30T14:47:26;5.38;;;3.22;;
20519;SDS011;53432;51.952;14.740;2022-09-30T14:49:56;4.90;;;2.70;;
20519;SDS011;53432;51.952;14.740;2022-09-30T14:52:33;7.05;;;3.42;;
20519;SDS011;53432;51.952;14.740;2022-09-30T14:55:02;4.53;;;2.85;;
20519;SDS011;53432;51.952;14.740;2022-09-30T14:57:30;6.38;;;2.85;;
20519;SDS011;53432;51.952;14.740;2022-09-30T15:02:47;6.93;;;3.63;;
20519;SDS011;53432;51.952;14.740;2022-09-30T15:05:15;3.78;;;2.53;;
20519;SDS011;53432;51.952;14.740;2022-09-30T15:07:43;3.72;;;2.10;;
20519;SDS011;53432;51.952;14.740;2022-09-30T15:10:15;4.00;;;1.95;;
20519;SDS011;53432;51.952;14.740;2022-09-30T15:12:46;5.68;;;2.65;;
20519;SDS011;53432;51.952;14.740;2022-09-30T15:15:31;3.83;;;2.15;;
20519;SDS011;53432;51.952;14.740;2022-09-30T15:20:53;10.10;;;3.00;;
20519;SDS011;53432;51.952;14.740;2022-09-30T15:23:24;4.93;;;2.95;;
20519;SDS011;53432;51.952;14.740;2022-09-30T15:25:54;5.63;;;2.90;;